MEA251 OLBA-LGAV
Flight info
| Callsign | MEA251 |
|---|---|
| Flight time | N/A |
| Altitude | 36000 |
| Route | ELIKA DCT EXELA UM601 RDS UL995 VARIX |
| Aircraft | A21N/M-SDE3FGHIRWY/LB1 |
Departure
| Time | 2026-04-30 13:59 |
|---|---|
| Airport | Beirut Rafic Hariri International Airport (OLBA) |
Arrival
| Time | N/A |
|---|---|
| Airport | Athens Eleftherios Venizelos International Airport (LGAV) |
| Time | Latitude | Longitude | Altitude | Speed | Heading |
|---|---|---|---|---|---|
| 2026-04-30 13:43 | 33.82330 | 35.49086 | 116 ft | 0 kts | 81° |
| 2026-04-30 13:50 | 33.82330 | 35.49082 | 116 ft | 2 kts | 81° |
| 2026-04-30 13:50 | 33.82325 | 35.49047 | 116 ft | 2 kts | 80° |
| 2026-04-30 13:50 | 33.82325 | 35.49029 | 115 ft | 2 kts | 111° |
| 2026-04-30 13:51 | 33.82333 | 35.49013 | 115 ft | 2 kts | 135° |
| 2026-04-30 13:51 | 33.82346 | 35.49003 | 115 ft | 2 kts | 161° |
| 2026-04-30 13:51 | 33.82354 | 35.49001 | 115 ft | 1 kts | 176° |
| 2026-04-30 13:51 | 33.82359 | 35.49000 | 115 ft | 0 kts | 174° |
| 2026-04-30 13:53 | 33.82358 | 35.49001 | 115 ft | 0 kts | 174° |
| 2026-04-30 13:53 | 33.82325 | 35.49004 | 115 ft | 9 kts | 174° |
| 2026-04-30 13:53 | 33.82260 | 35.49032 | 115 ft | 11 kts | 137° |
| 2026-04-30 13:54 | 33.82228 | 35.49124 | 116 ft | 13 kts | 105° |
| 2026-04-30 13:54 | 33.82202 | 35.49237 | 116 ft | 14 kts | 105° |
| 2026-04-30 13:54 | 33.82174 | 35.49361 | 116 ft | 16 kts | 109° |
| 2026-04-30 13:54 | 33.82123 | 35.49490 | 117 ft | 14 kts | 116° |
| 2026-04-30 13:55 | 33.82162 | 35.49589 | 117 ft | 15 kts | 34° |
| 2026-04-30 13:55 | 33.82254 | 35.49667 | 117 ft | 16 kts | 35° |
| 2026-04-30 13:55 | 33.82354 | 35.49751 | 117 ft | 18 kts | 36° |
| 2026-04-30 13:55 | 33.82447 | 35.49830 | 118 ft | 15 kts | 35° |
| 2026-04-30 13:56 | 33.82532 | 35.49902 | 118 ft | 15 kts | 34° |
| 2026-04-30 13:56 | 33.82619 | 35.49975 | 118 ft | 15 kts | 35° |
| 2026-04-30 13:56 | 33.82710 | 35.50051 | 118 ft | 15 kts | 34° |
| 2026-04-30 13:56 | 33.82770 | 35.50111 | 118 ft | 6 kts | 70° |
| 2026-04-30 13:57 | 33.82754 | 35.50164 | 119 ft | 8 kts | 125° |
| 2026-04-30 13:57 | 33.82703 | 35.50252 | 119 ft | 14 kts | 124° |
| 2026-04-30 13:57 | 33.82650 | 35.50279 | 120 ft | 4 kts | 217° |
| 2026-04-30 13:57 | 33.82646 | 35.50276 | 120 ft | 0 kts | 217° |
| 2026-04-30 13:58 | 33.82322 | 35.50022 | 119 ft | 88 kts | 212° |
| 2026-04-30 13:58 | 33.81641 | 35.49495 | 118 ft | 146 kts | 213° |
| 2026-04-30 13:59 | 33.80695 | 35.48751 | 432 ft | 168 kts | 215° |
| 2026-04-30 13:59 | 33.79787 | 35.47871 | 1088 ft | 170 kts | 227° |
| 2026-04-30 13:59 | 33.79020 | 35.46837 | 1789 ft | 170 kts | 229° |
| 2026-04-30 13:59 | 33.78199 | 35.45782 | 2271 ft | 178 kts | 227° |
| 2026-04-30 14:00 | 33.77319 | 35.44652 | 2569 ft | 193 kts | 231° |
| 2026-04-30 14:00 | 33.77007 | 35.41338 | 3136 ft | 223 kts | 279° |
| 2026-04-30 14:00 | 33.77288 | 35.39415 | 3393 ft | 246 kts | 279° |
| 2026-04-30 14:01 | 33.77553 | 35.37319 | 3787 ft | 264 kts | 277° |
| 2026-04-30 14:01 | 33.77787 | 35.35092 | 4369 ft | 274 kts | 276° |
| 2026-04-30 14:01 | 33.77993 | 35.32833 | 5163 ft | 275 kts | 275° |
| 2026-04-30 14:01 | 33.78183 | 35.30556 | 5965 ft | 277 kts | 274° |
| 2026-04-30 14:02 | 33.78364 | 35.28235 | 6770 ft | 280 kts | 273° |
| 2026-04-30 14:02 | 33.78535 | 35.25918 | 7539 ft | 283 kts | 273° |
| 2026-04-30 14:02 | 33.78706 | 35.23562 | 8293 ft | 286 kts | 273° |
| 2026-04-30 14:02 | 33.78875 | 35.21186 | 9056 ft | 289 kts | 273° |
| 2026-04-30 14:03 | 33.79046 | 35.18794 | 9835 ft | 291 kts | 272° |
| 2026-04-30 14:03 | 33.79218 | 35.16363 | 10476 ft | 296 kts | 272° |
| 2026-04-30 14:03 | 33.79396 | 35.13819 | 10832 ft | 313 kts | 273° |
| 2026-04-30 14:03 | 33.79583 | 35.11149 | 11149 ft | 330 kts | 273° |
| 2026-04-30 14:04 | 33.79777 | 35.08373 | 11499 ft | 344 kts | 273° |
| 2026-04-30 14:04 | 33.79979 | 35.05495 | 12095 ft | 349 kts | 273° |
| 2026-04-30 14:04 | 33.80183 | 35.02600 | 12803 ft | 351 kts | 274° |
| 2026-04-30 14:04 | 33.80389 | 34.99656 | 13457 ft | 354 kts | 273° |
| 2026-04-30 14:05 | 33.80596 | 34.96692 | 14090 ft | 357 kts | 274° |
| 2026-04-30 14:05 | 33.80800 | 34.93754 | 14707 ft | 359 kts | 274° |
| 2026-04-30 14:05 | 33.81008 | 34.90741 | 15326 ft | 362 kts | 274° |
| 2026-04-30 14:05 | 33.81212 | 34.87759 | 15929 ft | 364 kts | 274° |
| 2026-04-30 14:06 | 33.81419 | 34.84727 | 16526 ft | 366 kts | 274° |
| 2026-04-30 14:06 | 33.81836 | 34.78594 | 17665 ft | 370 kts | 274° |
| 2026-04-30 14:07 | 33.82252 | 34.72451 | 18751 ft | 374 kts | 274° |
| 2026-04-30 14:07 | 33.82464 | 34.69307 | 19259 ft | 376 kts | 274° |
| 2026-04-30 14:07 | 33.82674 | 34.66179 | 19759 ft | 378 kts | 274° |
| 2026-04-30 14:08 | 33.83265 | 34.59853 | 20726 ft | 383 kts | 282° |
| 2026-04-30 14:08 | 33.84044 | 34.56774 | 21173 ft | 386 kts | 290° |
| 2026-04-30 14:08 | 33.86476 | 34.50988 | 22066 ft | 391 kts | 298° |
| 2026-04-30 14:09 | 33.87781 | 34.48135 | 22500 ft | 393 kts | 298° |
| 2026-04-30 14:09 | 33.89109 | 34.45233 | 22938 ft | 395 kts | 298° |
| 2026-04-30 14:09 | 33.91769 | 34.39378 | 23711 ft | 401 kts | 298° |
| 2026-04-30 14:10 | 33.93108 | 34.36422 | 24100 ft | 403 kts | 298° |
| 2026-04-30 14:10 | 33.94447 | 34.33459 | 24515 ft | 404 kts | 297° |
| 2026-04-30 14:10 | 33.95780 | 34.30500 | 24890 ft | 406 kts | 297° |
| 2026-04-30 14:10 | 33.97125 | 34.27514 | 25269 ft | 407 kts | 297° |
| 2026-04-30 14:11 | 33.98480 | 34.24499 | 25632 ft | 409 kts | 297° |
| 2026-04-30 14:11 | 33.99840 | 34.21470 | 25966 ft | 411 kts | 297° |
| 2026-04-30 14:11 | 34.01208 | 34.18422 | 26250 ft | 415 kts | 297° |
| 2026-04-30 14:11 | 34.02585 | 34.15348 | 26372 ft | 421 kts | 297° |
| 2026-04-30 14:12 | 34.03966 | 34.12263 | 26516 ft | 427 kts | 297° |
| 2026-04-30 14:12 | 34.05386 | 34.09091 | 26772 ft | 430 kts | 297° |
| 2026-04-30 14:12 | 34.06797 | 34.05935 | 27074 ft | 431 kts | 297° |
| 2026-04-30 14:12 | 34.07750 | 34.03804 | 27265 ft | 432 kts | 297° |
| 2026-04-30 14:13 | 34.09659 | 33.99528 | 27646 ft | 434 kts | 297° |
| 2026-04-30 14:13 | 34.11077 | 33.96349 | 27931 ft | 435 kts | 297° |
| 2026-04-30 14:13 | 34.11904 | 33.94493 | 28083 ft | 436 kts | 297° |
| 2026-04-30 14:14 | 34.12595 | 33.92942 | 28210 ft | 437 kts | 297° |
| 2026-04-30 14:14 | 34.12926 | 33.92199 | 28275 ft | 437 kts | 297° |
| 2026-04-30 14:15 | 34.14728 | 33.88145 | 28618 ft | 439 kts | 297° |
| 2026-04-30 14:15 | 34.16173 | 33.84895 | 28873 ft | 440 kts | 297° |
| 2026-04-30 14:15 | 34.17614 | 33.81648 | 29137 ft | 441 kts | 297° |
| 2026-04-30 14:15 | 34.19051 | 33.78407 | 29398 ft | 442 kts | 297° |
| 2026-04-30 14:16 | 34.20502 | 33.75135 | 29640 ft | 443 kts | 297° |
| 2026-04-30 14:16 | 34.21971 | 33.71817 | 29870 ft | 445 kts | 297° |
| 2026-04-30 14:16 | 34.23428 | 33.68521 | 30094 ft | 446 kts | 297° |
| 2026-04-30 14:16 | 34.24881 | 33.65235 | 30298 ft | 447 kts | 297° |
| 2026-04-30 14:17 | 34.26339 | 33.61933 | 30522 ft | 448 kts | 297° |
| 2026-04-30 14:17 | 34.27813 | 33.58589 | 30735 ft | 449 kts | 297° |
| 2026-04-30 14:17 | 34.29272 | 33.55278 | 30928 ft | 449 kts | 297° |
| 2026-04-30 14:17 | 34.30750 | 33.51921 | 31121 ft | 450 kts | 297° |
| 2026-04-30 14:18 | 34.32209 | 33.48603 | 31293 ft | 451 kts | 297° |
| 2026-04-30 14:18 | 34.33673 | 33.45267 | 31472 ft | 452 kts | 297° |